createdAt,value
2022-12-19T04:51:50.474Z,28.80
2022-12-19T04:56:43.290Z,28.55
2022-12-19T05:01:35.968Z,31.93
2022-12-19T06:34:55.029Z,30.23
2022-12-19T06:39:37.595Z,30.60
2022-12-19T06:44:32.176Z,31.92
2022-12-19T06:49:24.079Z,29.25
2022-12-19T06:54:19.631Z,25.75
2022-12-19T06:59:13.979Z,25.02
2022-12-19T07:04:11.812Z,23.30
2022-12-19T07:09:03.539Z,22.13
2022-12-19T07:13:58.076Z,22.70
2022-12-19T07:18:48.183Z,20.15
2022-12-19T07:23:44.368Z,19.60
2022-12-19T07:28:36.494Z,17.88
2022-12-19T07:33:30.103Z,18.60
2022-12-19T07:38:24.491Z,16.58
2022-12-19T07:43:19.111Z,17.67
2022-12-19T07:48:11.666Z,15.68
2022-12-19T07:53:03.173Z,14.97
2022-12-19T07:57:56.345Z,15.00
2022-12-19T08:02:50.839Z,15.30
2022-12-19T08:07:45.512Z,15.15
2022-12-19T08:12:36.455Z,14.93
2022-12-19T08:17:26.758Z,14.38
2022-12-19T11:29:30.012Z,7.47
2022-12-19T11:37:09.812Z,6.10
2022-12-19T11:42:08.766Z,5.28
2022-12-19T11:47:18.472Z,5.13
2022-12-19T11:57:30.775Z,4.82
2022-12-19T12:02:54.422Z,5.95
2022-12-19T12:08:37.116Z,4.05
2022-12-19T12:25:54.590Z,3.15
2022-12-19T12:31:21.026Z,2.58
2022-12-19T12:31:51.725Z,3.05
2022-12-19T12:32:00.736Z,2.05
2022-12-19T12:35:51.512Z,2.55
2022-12-19T12:40:24.844Z,2.20
2022-12-19T12:45:23.855Z,2.53
2022-12-19T12:50:25.116Z,2.42
2022-12-19T12:55:27.219Z,1.92
2022-12-19T13:00:27.385Z,2.17
2022-12-19T13:05:55.830Z,2.05
2022-12-19T13:10:58.711Z,1.85
2022-12-19T13:15:50.971Z,2.20
2022-12-19T13:25:54.463Z,2.15
2022-12-19T13:31:24.989Z,1.25
2022-12-19T13:39:47.685Z,2.10
2022-12-19T13:42:35.675Z,1.85
2022-12-19T13:47:27.037Z,1.40
2022-12-19T13:52:18.440Z,0.98
2022-12-19T13:57:25.668Z,1.23
2022-12-19T14:02:23.586Z,1.10
2022-12-19T14:07:36.339Z,1.90
2022-12-19T14:14:01.155Z,1.00
2022-12-19T14:18:43.471Z,1.15
2022-12-19T14:23:25.950Z,1.27
2022-12-19T14:33:44.992Z,1.10
2022-12-19T14:39:26.753Z,0.95
2022-12-19T14:53:51.272Z,1.25
2022-12-19T14:53:51.951Z,1.10
2022-12-19T14:56:02.087Z,1.33
2022-12-19T14:59:57.457Z,0.90
2022-12-19T15:04:54.881Z,1.02
2022-12-19T15:11:05.011Z,1.77
2022-12-19T15:15:25.256Z,1.50
2022-12-19T15:20:18.005Z,2.15
2022-12-19T15:30:25.579Z,1.77
2022-12-19T15:35:17.209Z,1.33
2022-12-19T15:40:10.944Z,1.52
2022-12-19T15:49:58.716Z,1.55
2022-12-19T15:54:51.215Z,1.75
2022-12-19T15:59:48.933Z,1.58
2022-12-19T16:04:40.415Z,2.42
2022-12-19T16:09:55.043Z,1.73
2022-12-19T16:15:00.590Z,1.80
2022-12-19T16:19:53.556Z,1.83
2022-12-19T16:30:01.123Z,1.73
2022-12-19T16:34:52.920Z,1.33
2022-12-19T16:39:43.812Z,1.40
2022-12-19T16:44:38.673Z,2.00
2022-12-19T16:49:28.666Z,2.40
2022-12-19T16:54:20.308Z,1.42
2022-12-19T16:59:21.449Z,1.35
2022-12-19T17:04:19.100Z,1.33
2022-12-19T17:09:17.353Z,1.52
2022-12-19T17:14:16.459Z,1.50
2022-12-19T17:19:08.164Z,1.27
2022-12-19T17:24:01.941Z,1.77
2022-12-19T17:28:52.921Z,1.27
2022-12-19T17:33:44.073Z,2.45
2022-12-19T17:38:35.740Z,1.55
2022-12-19T17:43:29.317Z,1.93
2022-12-19T17:48:31.714Z,2.22
2022-12-19T17:53:24.013Z,2.67
2022-12-19T17:58:16.138Z,1.63
2022-12-19T18:03:21.951Z,1.25
2022-12-19T18:08:28.175Z,2.40
2022-12-19T18:13:21.289Z,2.28
2022-12-19T18:18:27.789Z,2.45
2022-12-19T18:23:22.386Z,2.60
2022-12-19T18:28:14.194Z,1.55
2022-12-19T18:33:08.169Z,2.27
2022-12-19T18:38:02.855Z,1.75
2022-12-19T18:42:54.886Z,2.08
2022-12-19T18:47:54.289Z,1.25
2022-12-19T18:52:45.051Z,1.90
2022-12-19T18:57:38.745Z,2.30
2022-12-19T19:02:32.502Z,1.75
2022-12-19T19:07:24.262Z,2.20
2022-12-19T19:12:15.248Z,2.13
2022-12-19T19:17:21.984Z,1.83
2022-12-19T19:22:12.012Z,2.15
2022-12-19T19:27:03.125Z,2.05
2022-12-19T19:31:59.015Z,2.70
2022-12-19T19:36:56.688Z,1.67
2022-12-19T19:41:49.372Z,1.83
2022-12-19T19:46:41.670Z,1.83
2022-12-19T19:56:31.789Z,1.92
2022-12-19T20:01:22.161Z,2.05
2022-12-19T20:06:29.206Z,2.55
2022-12-19T20:11:21.161Z,1.67
2022-12-19T20:16:16.108Z,1.85
2022-12-19T20:21:13.508Z,2.28
2022-12-19T20:26:09.978Z,2.20
2022-12-19T20:31:00.641Z,2.20
2022-12-19T20:35:56.901Z,2.10
2022-12-19T20:40:53.422Z,1.50
2022-12-19T20:45:44.144Z,1.55
2022-12-19T20:50:50.017Z,4.82
2022-12-19T20:55:58.117Z,1.92
2022-12-19T21:00:49.093Z,2.40
2022-12-19T21:05:41.634Z,2.33
2022-12-19T21:10:35.099Z,2.60
2022-12-19T21:15:34.466Z,2.80
2022-12-19T21:20:33.876Z,2.20
2022-12-19T21:25:28.812Z,2.53
2022-12-19T21:30:31.854Z,2.50
2022-12-19T21:35:41.412Z,2.75
2022-12-19T21:40:35.193Z,2.13
2022-12-19T21:45:28.983Z,2.67
2022-12-19T21:50:24.113Z,2.45
2022-12-19T21:55:17.991Z,2.42
2022-12-19T22:00:11.875Z,2.15
2022-12-19T22:05:03.265Z,2.17
2022-12-19T22:09:53.186Z,2.83
2022-12-19T22:14:46.050Z,2.20
2022-12-19T22:19:37.415Z,2.40
2022-12-19T22:24:32.029Z,2.35
2022-12-19T22:29:22.399Z,2.63
2022-12-19T22:34:17.994Z,2.80
2022-12-19T22:39:12.507Z,2.63
2022-12-19T22:44:04.063Z,2.75
2022-12-19T22:48:56.121Z,2.30
2022-12-19T22:53:54.337Z,2.03
2022-12-19T22:58:50.081Z,2.40
2022-12-19T23:03:41.650Z,2.53
2022-12-19T23:08:37.598Z,2.35
2022-12-19T23:13:33.811Z,2.47
2022-12-19T23:37:47.137Z,1.85
2022-12-19T23:42:37.575Z,2.35
2022-12-19T23:47:29.407Z,1.73
2022-12-19T23:52:24.836Z,1.88
2022-12-19T23:57:15.815Z,1.63
